AirNav   Everest Fuels
 
 950 users online  

FA27 Perrydise Heliport
Homosassa, Florida, USA

GOING TO HOMOSASSA?


FAA INFORMATION EFFECTIVE 07 NOVEMBER 2019

Location

FAA Identifier: FA27
Lat/Long: 28-45-36.7100N 082-37-43.6400W
28-45.611833N 082-37.727333W
28.7601972,-82.6287889
(estimated)
Elevation: 4 ft. / 1 m (estimated)
From city: 2 miles SW of HOMOSASSA, FL
Time zone: UTC -5 (UTC -4 during Daylight Saving Time)
Zip code: 34448

Heliport Operations

Heliport use: Private use. Permission required prior to landing
Activation date: 05/2016
Control tower: no
ARTCC: JACKSONVILLE CENTER
FSS: SAINT PETERSBURG FLIGHT SERVICE STATION
Attendance: 
Segmented circle: no

Heliport Communications

WX AWOS-3 at CGC (7 nm NE): 118.325 (352-563-6600)
WX AWOS-3 at INF (17 nm E): 119.975 (352-341-0264)
WX ASOS at BKV (19 nm SE): 134.725 (352-799-5881)

Nearby radio navigation aids

VOR radial/distance  VOR name  Freq  Var
OCFr220/32.8OCALA VORTAC113.7000E

Heliport Services

Runway Information

Helipad H1

Dimensions: 33 x 33 ft. / 10 x 10 m
Surface: turf
Traffic pattern: leftleft

Heliport Ownership and Management from official FAA records

Ownership: Privately-owned
Owner: PERRYDISE WILDLIFE, LLC
509 GUISANDO DE AVILA, SUITE 200
TAMPA, FL 33613
Phone 813-785-5138
Manager: JOHN (HI) SIERRA, JR
509 GUISANDO DE AVILA, SUITE 200
TAMPA, FL 33613
Phone 813-785-5138

Additional Remarks

FOR CD CTC JACKSONVILLE APCH AT 904-741-0284.

Instrument Procedures

There are no published instrument procedures at FA27.

Some nearby airports with instrument procedures:

KCGC - Crystal River Airport-Captain Tom Davis Field (7 nm NE)
KINF - Inverness Airport (17 nm E)
KBKV - Brooksville-Tampa Bay Regional Airport (19 nm SE)
X35 - Marion County Airport (22 nm NE)
KOCF - Ocala International Airport-Jim Taylor Field (33 nm NE)
 
Loc | Ops | Rwys | IFR | FBO | Links
Com | Nav | Svcs | Stats | Notes
Aerial photo
No photo
 
Airport distance calculator
Flying to Perrydise Heliport? Find the distance to fly.

From to FA27

Sunrise and sunset
Times for 21-Nov-2019
 Local
(UTC-5)
 Zulu
(UTC)
Morning civil twilight06:3411:34
Sunrise06:5911:59
Sunset17:3422:34
Evening civil twilight17:5922:59

Current date and time
Zulu (UTC)  21-Nov-2019 13:34:31
Local (UTC-5)  21-Nov-2019 08:34:31
 
METAR
KCGC 
7nm NE 
211315Z AUTO 00000KT 10SM CLR 11/10 A3024 RMK AO2
KINF 
17nm E 
211315Z AUTO 00000KT 10SM CLR 08/08 A3024 RMK AO2
KBKV 
20nm SE 
211253Z 00000KT 4SM BR CLR 08/08 A3024 RMK AO2 SLP238 T00830078
TAF
KLEE 
43nm E 
211129Z 2112/2212 01003KT P6SM SKC FM211700 08006KT P6SM SKC FM220000 VRB03KT P6SM FEW250
KTPA 
48nm S 
211131Z 2112/2218 05004KT P6SM SKC FM211500 08006KT P6SM FEW250 FM211800 13007KT P6SM SCT250 FM212100 03006KT P6SM FEW250 FM220100 VRB04KT P6SM SKC FM221500 10006KT P6SM FEW250
NOTAMs
Click for the latest NOTAMs
NOTAMs are issued by the DoD/FAA and will open in a separate window not controlled by AirNav.

 

 
 

Would you like to see your business listed on this page?

 If your business provides an interesting product or service to pilots, flight crews, aircraft, or users of the Perrydise Heliport, you should consider listing it here.  To start the listing process, click on the button below
 
Add a business
 

Other Pages about Perrydise Heliport

Update a link
 
Copyright © AirNav, LLC. All rights reserved. Privacy Policy  Contact